Salalah, Oman
Current Conditions -  °F | °C
As of 3:55 AM on Saturday 20 Dec 2014 (Local Time) from KQTH Reporting Station
Clear Clear  
Wind Chill: 55°   Ceiling: Unl
Heat Index: 55°   Visibility: 6mi
Dew Point: 40°   Wind: 2mph
Humidity: 56%   Direction: 120°ESE
Pressure: 30.21"   Gusts: NA
Location:  17.02°N, 54.09°E
Report Text: KQTH 192355Z AUTO 12002KT 9999 CLR 13/04 A3021 RMK AO2 SLP219 T01280042 56009 $
Loading
Personal Weather Stations






























Interactive Weather Map New forecast layout! Learn more

10-Day Weather Forecast

Advertisements
Track Severe Weather on mobile